Time;durP1;ratioP1;P1;durP2;ratioP2;P2;SDS_P1;SDS_P2;PMS_P1;PMS_P2;Temp;Humidity;BMP_temperature;BMP_pressure;BME280_temperature;BME280_humidity;BME280_pressure;Samples;Min_cycle;Max_cycle;Signal;HPM_P1;HPM_P2
2023/11/18 00:00:25;;;;;;;6.75;4.00;;;;;;;;;;5072776;28;20101;-57
2023/11/18 00:02:51;;;;;;;7.70;4.60;;;;;;;;;;5072683;28;20051;-60
2023/11/18 00:05:17;;;;;;;8.23;5.15;;;;;;;;;;5076321;28;20028;-59
2023/11/18 00:07:44;;;;;;;8.23;4.88;;;;;;;;;;5078674;28;20020;-62
2023/11/18 00:10:10;;;;;;;8.52;5.13;;;;;;;;;;5078790;28;20084;-63
2023/11/18 00:12:36;;;;;;;7.40;4.40;;;;;;;;;;5079670;28;20038;-60
2023/11/18 00:15:03;;;;;;;8.15;4.63;;;;;;;;;;5079036;28;20502;-55
2023/11/18 00:17:30;;;;;;;14.02;5.53;;;;;;;;;;5079560;28;20031;-60
2023/11/18 00:19:56;;;;;;;8.30;5.10;;;;;;;;;;5060070;28;20020;-61
2023/11/18 00:22:22;;;;;;;7.20;4.25;;;;;;;;;;5080008;28;20033;-58
2023/11/18 00:24:48;;;;;;;7.20;4.30;;;;;;;;;;5079603;28;20028;-60
2023/11/18 00:27:14;;;;;;;7.20;4.30;;;;;;;;;;5080326;28;20402;-58
2023/11/18 00:29:41;;;;;;;7.22;4.30;;;;;;;;;;5079423;28;20032;-61
2023/11/18 00:32:07;;;;;;;7.63;4.65;;;;;;;;;;5080455;28;20532;-62
2023/11/18 00:34:34;;;;;;;7.28;4.35;;;;;;;;;;5080127;28;20033;-63
2023/11/18 00:37:00;;;;;;;6.70;4.00;;;;;;;;;;5079763;28;20032;-63
2023/11/18 00:39:26;;;;;;;7.18;4.22;;;;;;;;;;5079634;28;20040;-62
2023/11/18 00:41:53;;;;;;;6.60;3.90;;;;;;;;;;5078623;28;20020;-64
2023/11/18 00:44:19;;;;;;;6.68;3.90;;;;;;;;;;5078755;28;20025;-61
2023/11/18 00:46:45;;;;;;;6.63;3.90;;;;;;;;;;5079633;28;20080;-62
2023/11/18 00:49:11;;;;;;;6.50;3.90;;;;;;;;;;5079454;28;20027;-64
2023/11/18 00:51:37;;;;;;;6.40;3.80;;;;;;;;;;5078556;28;20028;-60
2023/11/18 00:54:05;;;;;;;6.60;3.90;;;;;;;;;;5080567;28;20028;-63
2023/11/18 00:56:31;;;;;;;6.55;3.90;;;;;;;;;;5079005;28;20124;-62
2023/11/18 00:58:57;;;;;;;6.70;4.00;;;;;;;;;;5078299;28;20123;-62
2023/11/18 01:01:23;;;;;;;6.47;3.80;;;;;;;;;;5076948;28;20020;-58
2023/11/18 01:03:49;;;;;;;6.43;3.80;;;;;;;;;;5077598;28;20017;-63
2023/11/18 01:06:16;;;;;;;7.90;5.65;;;;;;;;;;5077821;28;20032;-62
2023/11/18 01:08:45;;;;;;;6.60;3.90;;;;;;;;;;5078212;28;20032;-63
2023/11/18 01:11:12;;;;;;;6.72;4.00;;;;;;;;;;5078902;28;20036;-62
2023/11/18 01:13:38;;;;;;;7.20;4.30;;;;;;;;;;5061362;28;20092;-60
2023/11/18 01:16:04;;;;;;;6.80;4.07;;;;;;;;;;5079203;28;20029;-62
2023/11/18 01:18:30;;;;;;;7.40;4.40;;;;;;;;;;5078138;28;20029;-61
2023/11/18 01:20:58;;;;;;;7.15;4.22;;;;;;;;;;5061130;28;20025;-60
2023/11/18 01:23:24;;;;;;;7.25;4.32;;;;;;;;;;5079066;28;20020;-62
2023/11/18 01:25:51;;;;;;;7.38;4.38;;;;;;;;;;5079747;28;20032;-60
2023/11/18 01:28:17;;;;;;;8.13;4.85;;;;;;;;;;5080027;28;20042;-56
2023/11/18 01:30:44;;;;;;;7.50;4.47;;;;;;;;;;5078108;28;20024;-59
2023/11/18 01:33:10;;;;;;;7.57;4.50;;;;;;;;;;5079258;28;20049;-60
2023/11/18 01:35:37;;;;;;;7.45;4.47;;;;;;;;;;5079047;28;20495;-58
2023/11/18 01:38:05;;;;;;;7.30;4.30;;;;;;;;;;5079423;28;20154;-59
2023/11/18 01:40:31;;;;;;;7.38;4.40;;;;;;;;;;5077751;28;20029;-62
2023/11/18 01:42:57;;;;;;;7.53;4.45;;;;;;;;;;5078583;28;20652;-61
2023/11/18 01:45:26;;;;;;;7.30;4.30;;;;;;;;;;5079384;28;20592;-63
2023/11/18 01:47:52;;;;;;;7.20;4.30;;;;;;;;;;5078833;28;20021;-62
2023/11/18 01:50:18;;;;;;;7.47;4.40;;;;;;;;;;5077250;28;20039;-61
2023/11/18 01:52:45;;;;;;;7.50;4.47;;;;;;;;;;5059294;28;20025;-62
2023/11/18 01:55:13;;;;;;;7.50;4.50;;;;;;;;;;5077833;28;20048;-62
2023/11/18 01:57:43;;;;;;;7.30;4.35;;;;;;;;;;5079125;28;20028;-64
2023/11/18 02:00:11;;;;;;;7.78;5.05;;;;;;;;;;5078752;28;20024;-60
2023/11/18 02:02:37;;;;;;;7.65;4.72;;;;;;;;;;5079377;28;20031;-61
2023/11/18 02:05:05;;;;;;;7.28;4.30;;;;;;;;;;5078669;28;20025;-61
2023/11/18 02:07:33;;;;;;;7.43;4.40;;;;;;;;;;5078912;28;20443;-60
2023/11/18 02:09:59;;;;;;;7.13;4.28;;;;;;;;;;5059379;28;20032;-59
2023/11/18 02:12:34;;;;;;;6.80;4.10;;;;;;;;;;5078957;28;20049;-61
2023/11/18 02:15:00;;;;;;;7.57;4.53;;;;;;;;;;5078183;28;20072;-61
2023/11/18 02:17:27;;;;;;;7.00;4.20;;;;;;;;;;5060386;28;20024;-60
2023/11/18 02:19:54;;;;;;;7.00;4.20;;;;;;;;;;5077185;28;20035;-62
2023/11/18 02:22:21;;;;;;;6.80;4.00;;;;;;;;;;5078215;28;20024;-62
2023/11/18 02:24:48;;;;;;;12.25;6.07;;;;;;;;;;5078477;28;20009;-59
2023/11/18 02:27:14;;;;;;;9.90;8.23;;;;;;;;;;5079028;28;20028;-60
2023/11/18 02:29:42;;;;;;;7.20;4.30;;;;;;;;;;5078951;28;20028;-53
2023/11/18 02:32:22;;;;;;;7.30;4.30;;;;;;;;;;5080522;28;20103;-61
2023/11/18 02:35:10;;;;;;;7.35;4.40;;;;;;;;;;5080659;28;20036;-59
2023/11/18 02:37:36;;;;;;;7.30;4.40;;;;;;;;;;5063166;28;20137;-59
2023/11/18 02:40:08;;;;;;;7.10;4.28;;;;;;;;;;5077038;28;20143;-58
2023/11/18 02:42:35;;;;;;;7.10;4.25;;;;;;;;;;5071692;28;20100;-60
2023/11/18 02:45:02;;;;;;;8.03;4.73;;;;;;;;;;5057291;28;20036;-62
2023/11/18 02:47:28;;;;;;;7.38;4.40;;;;;;;;;;5081836;28;20055;-62
2023/11/18 02:49:56;;;;;;;7.20;4.30;;;;;;;;;;5080319;28;20029;-62
2023/11/18 02:52:22;;;;;;;7.32;4.43;;;;;;;;;;5081458;28;20024;-60
2023/11/18 02:54:48;;;;;;;7.63;4.55;;;;;;;;;;5080820;28;20028;-60
2023/11/18 02:57:14;;;;;;;7.28;4.38;;;;;;;;;;5080916;28;20036;-61
2023/11/18 02:59:40;;;;;;;7.30;4.40;;;;;;;;;;5080600;28;20384;-61
2023/11/18 03:02:06;;;;;;;7.18;4.30;;;;;;;;;;5082886;28;20036;-63
2023/11/18 03:04:32;;;;;;;7.05;4.20;;;;;;;;;;5071932;28;20102;-61
2023/11/18 03:06:59;;;;;;;9.15;7.47;;;;;;;;;;5061697;28;20113;-62
2023/11/18 03:09:27;;;;;;;7.20;4.30;;;;;;;;;;5060821;28;20060;-58
2023/11/18 03:11:54;;;;;;;6.97;4.20;;;;;;;;;;5061008;28;20425;-60
2023/11/18 03:14:20;;;;;;;8.65;6.53;;;;;;;;;;5060712;28;20032;-59
2023/11/18 03:16:46;;;;;;;6.90;4.13;;;;;;;;;;5072464;28;20035;-62
2023/11/18 03:19:14;;;;;;;6.93;4.15;;;;;;;;;;5079647;28;20095;-61
2023/11/18 03:21:40;;;;;;;7.07;4.20;;;;;;;;;;5080293;28;20020;-61
2023/11/18 03:24:06;;;;;;;8.10;5.05;;;;;;;;;;5081102;28;20900;-61
2023/11/18 03:26:32;;;;;;;6.90;4.10;;;;;;;;;;5080682;28;20490;-62
2023/11/18 03:28:58;;;;;;;7.07;4.20;;;;;;;;;;5080978;28;20035;-62
2023/11/18 03:31:24;;;;;;;7.10;4.20;;;;;;;;;;5080217;28;20032;-61
2023/11/18 03:33:50;;;;;;;7.22;4.32;;;;;;;;;;5080724;28;20032;-63
2023/11/18 03:36:17;;;;;;;7.30;4.38;;;;;;;;;;5080318;28;20040;-62
2023/11/18 03:38:43;;;;;;;7.80;4.60;;;;;;;;;;5080281;28;20025;-58
2023/11/18 03:41:09;;;;;;;7.88;4.80;;;;;;;;;;5080123;28;20024;-58
2023/11/18 03:43:35;;;;;;;7.57;4.47;;;;;;;;;;5080280;28;20036;-57
2023/11/18 03:46:01;;;;;;;7.20;4.30;;;;;;;;;;5079877;28;20036;-55
2023/11/18 03:48:27;;;;;;;7.80;4.65;;;;;;;;;;5080028;28;20455;-58
2023/11/18 03:50:53;;;;;;;7.72;4.60;;;;;;;;;;5067882;28;20028;-58
2023/11/18 03:53:19;;;;;;;7.20;4.32;;;;;;;;;;5059815;28;20032;-55
2023/11/18 03:55:45;;;;;;;7.38;4.38;;;;;;;;;;5062200;28;20024;-58
2023/11/18 03:58:11;;;;;;;7.20;4.30;;;;;;;;;;5070180;28;20023;-56
2023/11/18 04:00:37;;;;;;;7.60;4.50;;;;;;;;;;5078559;28;20111;-60
2023/11/18 04:03:06;;;;;;;8.02;5.05;;;;;;;;;;5077836;28;20066;-58
2023/11/18 04:05:33;;;;;;;7.80;4.60;;;;;;;;;;5070310;28;20017;-61
2023/11/18 04:07:59;;;;;;;8.85;5.63;;;;;;;;;;5072598;28;20474;-62
2023/11/18 04:10:25;;;;;;;7.85;4.68;;;;;;;;;;5079027;28;20028;-62
2023/11/18 04:12:51;;;;;;;7.80;4.60;;;;;;;;;;5079758;28;20457;-63
2023/11/18 04:15:17;;;;;;;7.82;4.65;;;;;;;;;;5080618;28;20031;-63
2023/11/18 04:17:44;;;;;;;8.02;4.80;;;;;;;;;;5079548;28;20056;-61
2023/11/18 04:20:11;;;;;;;8.18;4.80;;;;;;;;;;5079118;28;20020;-61
2023/11/18 04:22:43;;;;;;;8.00;4.78;;;;;;;;;;5079667;28;20113;-59
2023/11/18 04:25:10;;;;;;;8.55;5.40;;;;;;;;;;5079452;28;20506;-56
2023/11/18 04:27:37;;;;;;;8.00;4.70;;;;;;;;;;5078934;28;20020;-57
2023/11/18 04:30:03;;;;;;;7.78;4.65;;;;;;;;;;5060718;28;20048;-62
2023/11/18 04:32:32;;;;;;;8.40;4.95;;;;;;;;;;5078929;28;20028;-60
2023/11/18 04:34:58;;;;;;;7.50;4.50;;;;;;;;;;5073712;28;20013;-62
2023/11/18 04:37:24;;;;;;;7.45;4.45;;;;;;;;;;5058960;28;20063;-63
2023/11/18 04:39:50;;;;;;;8.20;4.82;;;;;;;;;;5052579;28;20604;-62
2023/11/18 04:42:16;;;;;;;7.93;4.70;;;;;;;;;;5079922;28;20020;-63
2023/11/18 04:44:42;;;;;;;7.80;4.60;;;;;;;;;;5079431;28;20032;-59
2023/11/18 04:47:08;;;;;;;8.30;4.93;;;;;;;;;;5078700;28;20035;-61
2023/11/18 04:49:34;;;;;;;7.90;4.70;;;;;;;;;;5077440;28;20502;-65
2023/11/18 04:52:00;;;;;;;8.88;6.22;;;;;;;;;;5078107;28;20102;-60
2023/11/18 04:54:26;;;;;;;7.75;4.63;;;;;;;;;;5070389;28;20028;-62
2023/11/18 04:56:52;;;;;;;8.10;4.80;;;;;;;;;;5077496;28;20021;-62
2023/11/18 04:59:19;;;;;;;8.07;4.78;;;;;;;;;;5078016;28;20131;-64
2023/11/18 05:01:45;;;;;;;8.98;5.75;;;;;;;;;;5057886;28;20077;-62
2023/11/18 05:04:11;;;;;;;7.82;4.70;;;;;;;;;;5057691;28;20441;-60
2023/11/18 05:06:37;;;;;;;7.78;4.60;;;;;;;;;;5060872;28;20017;-58
2023/11/18 05:09:07;;;;;;;7.82;5.07;;;;;;;;;;5060028;28;20054;-60
2023/11/18 05:11:33;;;;;;;7.40;4.40;;;;;;;;;;5077423;28;20017;-63
2023/11/18 05:13:59;;;;;;;7.90;4.70;;;;;;;;;;5078127;28;20264;-63
2023/11/18 05:16:25;;;;;;;7.93;4.70;;;;;;;;;;5077795;28;20025;-62
2023/11/18 05:18:51;;;;;;;7.88;4.72;;;;;;;;;;5073143;28;20078;-63
2023/11/18 05:21:18;;;;;;;7.85;4.70;;;;;;;;;;5057363;28;20017;-61
2023/11/18 05:23:44;;;;;;;8.55;5.22;;;;;;;;;;5058753;28;20081;-62
2023/11/18 05:26:10;;;;;;;8.82;6.05;;;;;;;;;;5078415;28;20386;-62
2023/11/18 05:28:36;;;;;;;8.40;5.00;;;;;;;;;;5077876;28;20024;-63
2023/11/18 05:31:03;;;;;;;8.70;5.30;;;;;;;;;;5076805;28;20036;-65
2023/11/18 05:33:30;;;;;;;7.70;4.60;;;;;;;;;;5078128;28;20620;-63
2023/11/18 05:35:55;;;;;;;13.18;9.43;;;;;;;;;;5078437;28;20024;-64
2023/11/18 05:38:23;;;;;;;7.70;4.60;;;;;;;;;;5069598;28;20036;-62
2023/11/18 05:40:56;;;;;;;8.13;4.80;;;;;;;;;;5073554;28;20013;-59
2023/11/18 05:43:29;;;;;;;8.25;5.28;;;;;;;;;;5057804;28;20394;-64
2023/11/18 05:48:39;;;;;;;8.05;4.80;;;;;;;;;;5078450;28;20043;-64
2023/11/18 05:51:05;;;;;;;8.25;4.93;;;;;;;;;;5078230;28;20021;-64
2023/11/18 05:53:31;;;;;;;7.85;4.68;;;;;;;;;;5078862;28;20017;-60
2023/11/18 05:55:57;;;;;;;8.05;4.78;;;;;;;;;;5070685;28;20008;-62
2023/11/18 05:58:23;;;;;;;7.78;4.63;;;;;;;;;;5077693;28;20031;-61
2023/11/18 06:00:49;;;;;;;8.10;4.82;;;;;;;;;;5078197;28;20016;-62
2023/11/18 06:03:16;;;;;;;7.93;4.70;;;;;;;;;;5074750;28;20410;-63
2023/11/18 06:05:42;;;;;;;8.55;5.40;;;;;;;;;;5063279;28;20028;-61
2023/11/18 06:08:08;;;;;;;8.30;4.93;;;;;;;;;;5083342;22;20463;-49
2023/11/18 06:10:34;;;;;;;8.80;5.20;;;;;;;;;;5052387;28;20027;-53
2023/11/18 06:13:00;;;;;;;9.85;7.55;;;;;;;;;;5052010;28;20021;-54
2023/11/18 06:15:27;;;;;;;8.68;5.10;;;;;;;;;;5053158;28;20032;-56
2023/11/18 06:17:55;;;;;;;8.90;5.28;;;;;;;;;;5053024;28;20076;-49
2023/11/18 06:20:23;;;;;;;9.60;5.63;;;;;;;;;;5052342;28;20028;-56
2023/11/18 06:22:49;;;;;;;9.80;5.82;;;;;;;;;;5047643;28;20092;-53
2023/11/18 06:25:16;;;;;;;9.30;5.50;;;;;;;;;;5045637;28;20376;-52
2023/11/18 06:27:45;;;;;;;9.15;5.40;;;;;;;;;;5031326;28;20388;-53
2023/11/18 06:30:12;;;;;;;9.02;5.30;;;;;;;;;;5049517;28;20024;-54
2023/11/18 06:32:39;;;;;;;9.48;5.60;;;;;;;;;;5051436;28;20491;-50
2023/11/18 06:35:08;;;;;;;9.27;5.50;;;;;;;;;;5052811;28;20025;-52
2023/11/18 06:37:34;;;;;;;9.27;5.47;;;;;;;;;;5052424;28;20025;-53
2023/11/18 06:40:00;;;;;;;9.98;5.82;;;;;;;;;;5050844;28;20100;-51
2023/11/18 06:42:26;;;;;;;10.27;6.20;;;;;;;;;;5053024;28;20124;-50
2023/11/18 06:44:52;;;;;;;9.88;5.82;;;;;;;;;;5052501;28;20553;-47
2023/11/18 06:47:19;;;;;;;9.95;5.88;;;;;;;;;;5052497;28;20059;-53
2023/11/18 06:49:47;;;;;;;9.65;5.70;;;;;;;;;;5043469;28;20025;-51
2023/11/18 06:52:13;;;;;;;9.43;5.63;;;;;;;;;;5051226;28;20029;-49
2023/11/18 06:54:41;;;;;;;9.75;5.72;;;;;;;;;;5050864;28;20021;-49
2023/11/18 06:57:07;;;;;;;9.50;5.60;;;;;;;;;;5050819;28;20032;-49
2023/11/18 06:59:34;;;;;;;9.70;5.82;;;;;;;;;;5043873;28;20026;-51
2023/11/18 07:02:00;;;;;;;9.57;5.70;;;;;;;;;;5038310;28;20009;-51
2023/11/18 07:04:26;;;;;;;9.75;5.80;;;;;;;;;;5030957;28;20456;-48
2023/11/18 07:06:52;;;;;;;10.55;6.50;;;;;;;;;;5031856;28;20049;-50
2023/11/18 07:09:20;;;;;;;9.80;5.80;;;;;;;;;;5032080;28;20140;-50
2023/11/18 07:11:47;;;;;;;10.05;5.90;;;;;;;;;;5046107;28;20104;-52
2023/11/18 07:14:14;;;;;;;10.10;6.00;;;;;;;;;;5051780;28;20017;-53
2023/11/18 07:16:40;;;;;;;9.83;5.73;;;;;;;;;;5048364;28;20040;-50
2023/11/18 07:19:06;;;;;;;9.93;5.90;;;;;;;;;;5046385;28;20486;-54
2023/11/18 07:21:33;;;;;;;10.20;6.00;;;;;;;;;;5049791;28;20328;-53
2023/11/18 07:23:59;;;;;;;9.85;5.80;;;;;;;;;;5045207;28;20025;-52
2023/11/18 07:26:25;;;;;;;10.00;5.90;;;;;;;;;;5050483;28;20021;-50
2023/11/18 07:28:51;;;;;;;10.55;6.20;;;;;;;;;;5050885;28;20033;-52
2023/11/18 07:31:18;;;;;;;10.95;6.40;;;;;;;;;;5051755;28;20071;-52
2023/11/18 07:33:48;;;;;;;11.07;6.50;;;;;;;;;;5048688;28;20025;-51
2023/11/18 07:36:15;;;;;;;10.52;6.15;;;;;;;;;;5047311;28;20032;-53
2023/11/18 07:38:41;;;;;;;10.05;5.93;;;;;;;;;;5049574;28;20025;-55
2023/11/18 07:41:08;;;;;;;11.48;6.68;;;;;;;;;;5039083;28;20489;-49
2023/11/18 07:43:36;;;;;;;18.45;16.48;;;;;;;;;;5048113;28;20100;-53
2023/11/18 07:46:02;;;;;;;11.13;6.85;;;;;;;;;;5041982;28;20040;-56
2023/11/18 07:48:28;;;;;;;11.13;6.50;;;;;;;;;;5046165;28;20083;-56
2023/11/18 07:50:54;;;;;;;10.45;6.15;;;;;;;;;;5050434;28;20491;-58
2023/11/18 07:53:20;;;;;;;12.18;7.60;;;;;;;;;;5050583;28;20025;-51
2023/11/18 07:55:50;;;;;;;13.18;8.45;;;;;;;;;;5050961;28;20403;-49
2023/11/18 07:58:20;;;;;;;12.23;8.80;;;;;;;;;;5050992;28;20021;-52
2023/11/18 08:00:46;;;;;;;11.30;6.60;;;;;;;;;;5049897;28;20016;-55
2023/11/18 08:03:13;;;;;;;10.90;6.38;;;;;;;;;;5050766;28;20020;-54
2023/11/18 08:05:45;;;;;;;11.10;6.78;;;;;;;;;;5050814;28;20094;-54
2023/11/18 08:08:12;;;;;;;10.60;6.22;;;;;;;;;;5050634;28;20047;-51
2023/11/18 08:10:38;;;;;;;11.40;6.60;;;;;;;;;;5050134;28;20078;-50
2023/11/18 08:13:06;;;;;;;11.90;6.97;;;;;;;;;;5050443;28;20036;-54
2023/11/18 08:15:32;;;;;;;10.88;6.38;;;;;;;;;;5050576;28;20028;-54
2023/11/18 08:17:59;;;;;;;11.05;6.45;;;;;;;;;;5050469;28;20051;-53
2023/11/18 08:20:26;;;;;;;11.10;6.65;;;;;;;;;;5049961;28;20760;-51
2023/11/18 08:22:53;;;;;;;11.00;6.72;;;;;;;;;;5046557;28;20013;-58
2023/11/18 08:25:19;;;;;;;11.00;6.40;;;;;;;;;;5045442;28;20497;-58
2023/11/18 08:27:47;;;;;;;11.32;7.15;;;;;;;;;;5050275;28;20597;-54
2023/11/18 08:30:14;;;;;;;10.80;6.30;;;;;;;;;;5043604;28;20025;-52
2023/11/18 08:32:41;;;;;;;11.07;6.47;;;;;;;;;;5049955;28;20544;-53
2023/11/18 08:35:12;;;;;;;12.52;7.10;;;;;;;;;;5042123;28;20027;-52
2023/11/18 08:37:38;;;;;;;12.10;7.60;;;;;;;;;;5031662;28;20092;-54
2023/11/18 08:40:14;;;;;;;11.30;6.60;;;;;;;;;;5033969;28;20044;-55
2023/11/18 08:42:49;;;;;;;10.77;6.30;;;;;;;;;;5050025;28;20080;-56
2023/11/18 08:45:19;;;;;;;11.13;7.28;;;;;;;;;;5049959;28;20013;-53
2023/11/18 08:47:48;;;;;;;10.77;6.30;;;;;;;;;;5048209;28;20074;-55
2023/11/18 08:50:16;;;;;;;11.18;6.50;;;;;;;;;;5049071;28;20025;-54
2023/11/18 08:52:46;;;;;;;11.00;6.40;;;;;;;;;;5043018;28;20081;-56
2023/11/18 08:55:17;;;;;;;11.40;7.05;;;;;;;;;;5048504;28;20414;-51
2023/11/18 08:57:59;;;;;;;10.63;6.32;;;;;;;;;;5041527;28;20487;-53
2023/11/18 09:03:17;;;;;;;10.63;6.20;;;;;;;;;;5050167;28;20021;-55
2023/11/18 09:05:56;;;;;;;10.30;6.07;;;;;;;;;;5049857;28;20100;-55
2023/11/18 09:08:22;;;;;;;9.80;5.78;;;;;;;;;;5046104;28;20575;-53
2023/11/18 09:10:48;;;;;;;10.52;6.20;;;;;;;;;;5048624;28;20107;-47
2023/11/18 09:13:14;;;;;;;10.60;6.20;;;;;;;;;;5047533;28;20428;-50
2023/11/18 09:15:42;;;;;;;9.80;5.80;;;;;;;;;;5043342;28;20044;-49
2023/11/18 09:18:10;;;;;;;9.57;5.63;;;;;;;;;;5049157;28;20021;-52
2023/11/18 09:20:36;;;;;;;9.20;5.40;;;;;;;;;;5049040;28;20048;-49
2023/11/18 09:23:02;;;;;;;9.77;5.80;;;;;;;;;;5048324;28;20271;-49
2023/11/18 09:25:28;;;;;;;9.38;5.60;;;;;;;;;;5048641;28;20021;-49
2023/11/18 09:27:54;;;;;;;12.10;6.90;;;;;;;;;;5049810;28;20048;-48
2023/11/18 09:30:20;;;;;;;9.90;5.82;;;;;;;;;;5049169;28;20120;-52
2023/11/18 09:32:48;;;;;;;9.57;5.68;;;;;;;;;;5049797;28;20055;-53
2023/11/18 09:35:14;;;;;;;10.27;6.18;;;;;;;;;;5049828;28;20021;-49
2023/11/18 09:37:40;;;;;;;17.77;11.93;;;;;;;;;;5053630;28;20487;-49
2023/11/18 09:40:14;;;;;;;9.50;5.60;;;;;;;;;;5052951;28;20047;-51
2023/11/18 09:42:40;;;;;;;8.63;5.10;;;;;;;;;;5053838;28;20082;-48
2023/11/18 09:45:10;;;;;;;9.63;5.90;;;;;;;;;;5053720;28;20387;-52
2023/11/18 09:47:39;;;;;;;9.30;5.50;;;;;;;;;;5052293;28;20487;-49
2023/11/18 09:50:10;;;;;;;9.85;5.85;;;;;;;;;;5051551;28;20029;-54
2023/11/18 09:52:39;;;;;;;9.82;5.80;;;;;;;;;;5053532;28;20048;-52
2023/11/18 09:55:14;;;;;;;9.63;5.70;;;;;;;;;;5053364;28;20049;-50
2023/11/18 09:57:41;;;;;;;9.45;5.70;;;;;;;;;;5053325;28;20028;-50
2023/11/18 10:00:20;;;;;;;8.80;5.20;;;;;;;;;;5052413;28;20437;-52
2023/11/18 10:02:50;;;;;;;9.50;5.60;;;;;;;;;;5053248;28;20044;-51
2023/11/18 10:05:20;;;;;;;9.52;5.60;;;;;;;;;;5053555;28;20070;-48
2023/11/18 10:07:47;;;;;;;9.45;5.60;;;;;;;;;;5051741;28;20033;-52
2023/11/18 10:10:16;;;;;;;9.50;5.60;;;;;;;;;;5052583;28;20410;-48
2023/11/18 10:12:44;;;;;;;9.98;5.85;;;;;;;;;;5051905;28;20070;-50
2023/11/18 10:15:11;;;;;;;9.95;5.85;;;;;;;;;;5051905;28;20040;-48
2023/11/18 10:17:54;;;;;;;12.07;7.70;;;;;;;;;;5052729;28;20368;-46
2023/11/18 10:20:25;;;;;;;10.35;6.72;;;;;;;;;;5050345;28;20027;-50
2023/11/18 10:23:05;;;;;;;9.68;5.70;;;;;;;;;;5051783;28;20116;-48
2023/11/18 10:25:34;;;;;;;10.30;6.10;;;;;;;;;;5053171;28;20032;-50
2023/11/18 10:28:02;;;;;;;10.00;5.90;;;;;;;;;;5053053;28;20108;-49
2023/11/18 10:30:31;;;;;;;10.43;6.50;;;;;;;;;;5050688;28;20037;-51
2023/11/18 10:33:06;;;;;;;17.02;8.57;;;;;;;;;;5071694;28;20516;-52
2023/11/18 10:35:36;;;;;;;9.40;5.50;;;;;;;;;;5072734;28;20111;-53
2023/11/18 10:38:04;;;;;;;9.65;5.70;;;;;;;;;;5072615;28;20101;-56
2023/11/18 10:40:36;;;;;;;9.75;5.80;;;;;;;;;;5063951;28;20032;-48
2023/11/18 10:43:09;;;;;;;10.27;5.90;;;;;;;;;;5052555;28;20104;-49
2023/11/18 10:45:38;;;;;;;9.32;5.55;;;;;;;;;;5052322;28;20345;-52
2023/11/18 10:48:08;;;;;;;9.40;5.57;;;;;;;;;;5051168;28;20025;-50
2023/11/18 10:50:34;;;;;;;9.45;5.55;;;;;;;;;;5051525;28;20079;-48
2023/11/18 10:53:01;;;;;;;9.23;5.45;;;;;;;;;;5051100;28;20127;-51
2023/11/18 10:55:37;;;;;;;9.20;5.63;;;;;;;;;;5052198;28;20471;-52
2023/11/18 10:58:04;;;;;;;9.65;5.93;;;;;;;;;;5051911;28;20482;-47
2023/11/18 11:00:33;;;;;;;9.50;5.60;;;;;;;;;;5051460;28;20556;-49
2023/11/18 11:02:59;;;;;;;9.27;5.43;;;;;;;;;;5051893;28;20020;-51
2023/11/18 11:05:32;;;;;;;9.70;5.97;;;;;;;;;;5052598;28;20044;-45
2023/11/18 11:08:04;;;;;;;9.20;5.40;;;;;;;;;;5051688;28;20517;-54
2023/11/18 11:10:30;;;;;;;9.40;5.55;;;;;;;;;;5050200;28;20033;-49
2023/11/18 11:13:01;;;;;;;9.90;5.90;;;;;;;;;;5051833;28;20081;-50
2023/11/18 11:15:31;;;;;;;9.85;6.15;;;;;;;;;;5048329;28;20037;-50
2023/11/18 11:18:08;;;;;;;9.52;5.60;;;;;;;;;;5051884;28;20097;-48
2023/11/18 11:20:36;;;;;;;9.82;5.80;;;;;;;;;;5051261;28;20099;-48
2023/11/18 11:23:21;;;;;;;9.00;5.32;;;;;;;;;;5051742;28;20356;-50
2023/11/18 11:25:53;;;;;;;9.50;5.63;;;;;;;;;;5051601;28;20029;-47
2023/11/18 11:28:23;;;;;;;9.50;5.60;;;;;;;;;;5050192;28;20033;-49
2023/11/18 11:31:14;;;;;;;10.13;5.90;;;;;;;;;;5046241;28;20056;-52
2023/11/18 11:33:44;;;;;;;9.32;5.50;;;;;;;;;;5051239;28;20104;-48
2023/11/18 11:36:12;;;;;;;11.02;6.55;;;;;;;;;;5051000;28;20025;-50
2023/11/18 11:38:38;;;;;;;8.77;5.20;;;;;;;;;;5050746;28;20106;-49
2023/11/18 11:41:05;;;;;;;9.77;6.38;;;;;;;;;;5047785;28;20024;-50
2023/11/18 11:43:34;;;;;;;8.75;5.13;;;;;;;;;;5044637;28;20029;-55
2023/11/18 11:46:03;;;;;;;9.45;5.57;;;;;;;;;;5044309;28;20067;-47
2023/11/18 11:48:35;;;;;;;9.63;5.70;;;;;;;;;;5047829;28;20091;-51
2023/11/18 11:51:20;;;;;;;9.77;5.80;;;;;;;;;;5043321;28;20155;-49
2023/11/18 11:54:14;;;;;;;10.15;6.45;;;;;;;;;;5044085;28;20548;-48
2023/11/18 11:56:43;;;;;;;10.15;6.50;;;;;;;;;;5044738;28;20491;-50
2023/11/18 11:59:11;;;;;;;9.80;5.80;;;;;;;;;;5044201;28;20394;-48
2023/11/18 12:01:37;;;;;;;8.70;5.15;;;;;;;;;;5043537;28;20499;-50
2023/11/18 12:04:07;;;;;;;9.80;5.80;;;;;;;;;;5041268;28;20487;-46
2023/11/18 12:06:41;;;;;;;8.70;5.18;;;;;;;;;;5047229;28;20025;-48
2023/11/18 12:09:09;;;;;;;8.88;5.28;;;;;;;;;;5061760;22;20041;-60
2023/11/18 12:11:45;;;;;;;9.38;5.50;;;;;;;;;;5048714;28;20463;-56
2023/11/18 12:19:46;;;;;;;9.50;5.60;;;;;;;;;;5049199;28;20414;-53
2023/11/18 12:22:24;;;;;;;9.40;5.57;;;;;;;;;;5031927;28;20060;-54
2023/11/18 12:24:58;;;;;;;9.87;5.83;;;;;;;;;;5042054;28;20028;-54
2023/11/18 12:27:40;;;;;;;9.07;5.40;;;;;;;;;;5049826;28;20538;-56
2023/11/18 12:30:30;;;;;;;9.18;5.40;;;;;;;;;;5048778;28;20132;-53
2023/11/18 12:33:08;;;;;;;9.60;5.90;;;;;;;;;;5049228;28;20150;-57
2023/11/18 12:36:01;;;;;;;22.50;10.57;;;;;;;;;;5046656;28;20089;-52
2023/11/18 12:38:46;;;;;;;8.80;5.20;;;;;;;;;;5057646;28;20029;-55
2023/11/18 12:41:37;;;;;;;8.38;4.90;;;;;;;;;;5049250;28;20029;-54
2023/11/18 12:44:18;;;;;;;8.20;4.90;;;;;;;;;;5048665;28;20827;-56
2023/11/18 12:47:14;;;;;;;8.65;5.10;;;;;;;;;;5049378;28;20597;-57
2023/11/18 12:49:43;;;;;;;18.35;10.10;;;;;;;;;;5048400;28;20025;-55
2023/11/18 12:52:10;;;;;;;8.40;4.95;;;;;;;;;;5048872;28;20037;-55
2023/11/18 12:54:43;;;;;;;8.02;4.78;;;;;;;;;;5031399;28;20394;-53
2023/11/18 12:57:09;;;;;;;8.65;5.13;;;;;;;;;;5049536;28;20031;-55
2023/11/18 12:59:37;;;;;;;7.80;4.60;;;;;;;;;;5048027;28;20032;-52
2023/11/18 13:02:06;;;;;;;7.80;4.70;;;;;;;;;;5048403;28;20017;-57
2023/11/18 13:04:33;;;;;;;7.15;4.30;;;;;;;;;;5049606;28;20081;-55
2023/11/18 13:07:00;;;;;;;8.07;4.78;;;;;;;;;;5049562;28;20159;-53
2023/11/18 13:09:32;;;;;;;7.05;4.20;;;;;;;;;;5048655;28;20040;-56
2023/11/18 13:11:59;;;;;;;7.30;4.30;;;;;;;;;;5048476;28;20106;-55
2023/11/18 13:14:30;;;;;;;8.10;4.80;;;;;;;;;;5049082;28;20043;-54
2023/11/18 13:16:56;;;;;;;7.93;4.70;;;;;;;;;;5048885;28;20483;-56
2023/11/18 13:19:28;;;;;;;8.40;5.55;;;;;;;;;;5048617;28;20029;-56
2023/11/18 13:22:03;;;;;;;11.20;6.68;;;;;;;;;;5030957;28;20025;-55
2023/11/18 13:24:29;;;;;;;6.97;4.18;;;;;;;;;;5048835;28;20144;-55
2023/11/18 13:26:56;;;;;;;9.13;4.68;;;;;;;;;;5048836;28;20440;-54
2023/11/18 13:29:23;;;;;;;7.55;4.50;;;;;;;;;;5048238;28;20526;-56
2023/11/18 13:31:50;;;;;;;7.63;4.50;;;;;;;;;;5048318;28;20041;-55
2023/11/18 13:34:17;;;;;;;7.80;4.60;;;;;;;;;;5049432;28;20432;-55
2023/11/18 13:36:43;;;;;;;9.57;6.45;;;;;;;;;;5048625;28;20037;-55
2023/11/18 13:39:16;;;;;;;10.93;5.65;;;;;;;;;;5048536;28;20025;-54
2023/11/18 13:41:44;;;;;;;7.90;4.72;;;;;;;;;;5048360;28;20028;-54
2023/11/18 13:44:12;;;;;;;8.00;4.80;;;;;;;;;;5048553;28;20128;-53
2023/11/18 13:46:42;;;;;;;6.85;4.07;;;;;;;;;;4699571;28;10000387;-58
2023/11/18 13:49:08;;;;;;;7.50;4.40;;;;;;;;;;5044301;28;20032;-55
2023/11/18 13:51:36;;;;;;;9.57;5.18;;;;;;;;;;5046070;28;20029;-57
2023/11/18 13:54:02;;;;;;;7.35;4.40;;;;;;;;;;5046477;28;20035;-54
2023/11/18 13:56:28;;;;;;;7.20;4.38;;;;;;;;;;5045702;28;20030;-53
2023/11/18 13:58:55;;;;;;;7.07;4.22;;;;;;;;;;5060677;28;20090;-58
2023/11/18 14:01:21;;;;;;;8.05;4.80;;;;;;;;;;5045082;28;20073;-57
2023/11/18 14:03:47;;;;;;;8.32;4.88;;;;;;;;;;5044230;28;20051;-54
2023/11/18 14:06:17;;;;;;;7.30;4.35;;;;;;;;;;5058494;28;20036;-56
2023/11/18 14:08:43;;;;;;;6.88;4.10;;;;;;;;;;5045593;28;20025;-58
2023/11/18 14:11:09;;;;;;;7.65;4.68;;;;;;;;;;5026475;28;20033;-55
2023/11/18 14:13:37;;;;;;;7.20;4.30;;;;;;;;;;5044964;28;20814;-55
2023/11/18 14:16:03;;;;;;;8.47;5.70;;;;;;;;;;5045197;28;20584;-54
2023/11/18 14:18:29;;;;;;;7.28;4.38;;;;;;;;;;5044897;28;20071;-55
2023/11/18 14:20:55;;;;;;;9.35;6.57;;;;;;;;;;5044591;28;20029;-55
2023/11/18 14:23:22;;;;;;;7.97;4.75;;;;;;;;;;5046802;28;20390;-56
2023/11/18 14:25:48;;;;;;;8.07;4.75;;;;;;;;;;5049427;28;20045;-55
2023/11/18 14:28:14;;;;;;;8.05;4.78;;;;;;;;;;5048899;28;20060;-57
2023/11/18 14:30:41;;;;;;;8.30;4.95;;;;;;;;;;5048117;28;20036;-51
2023/11/18 14:33:07;;;;;;;9.40;5.10;;;;;;;;;;5050331;28;20395;-56
2023/11/18 14:35:33;;;;;;;8.40;4.90;;;;;;;;;;5051013;28;20021;-56
2023/11/18 14:38:01;;;;;;;8.02;4.93;;;;;;;;;;4698528;28;10000466;-54
2023/11/18 14:40:27;;;;;;;8.52;5.25;;;;;;;;;;5049079;28;20071;-56
2023/11/18 14:42:54;;;;;;;7.60;4.50;;;;;;;;;;5048967;28;20021;-53
2023/11/18 14:45:21;;;;;;;8.52;5.43;;;;;;;;;;5049059;28;20031;-55
2023/11/18 14:47:48;;;;;;;9.25;5.78;;;;;;;;;;5049041;28;20024;-54
2023/11/18 14:50:20;;;;;;;7.70;4.60;;;;;;;;;;5048382;28;20654;-50
2023/11/18 14:52:46;;;;;;;9.75;5.95;;;;;;;;;;5049134;28;20517;-53
2023/11/18 14:55:13;;;;;;;7.63;4.50;;;;;;;;;;5048973;28;20069;-53
2023/11/18 14:57:40;;;;;;;7.53;4.45;;;;;;;;;;5049036;28;20087;-53